Terminal Aerodrome Forecast
Issued by NWS Sioux Falls, SD

Home | Current Version | Previous Version | Graphics & Text | Print | Product List | Glossary On
Versions: 1 2 3 4 5 6 7 8 9 10 11 12 13 14 15 16 17 18 19 20 21 22 23 24 25 26 27 28
000
FTUS43 KFSD 061600 AAA
TAFSUX
TAF AMD
KSUX 061600Z 0616/0712 33012G17KT P6SM BKN025
      TEMPO 0616/0618 SCT025 BKN040
     FM061800 36017G25KT 6SM FU BKN040
     FM070200 35007KT P6SM SKC=

USA.gov is the U.S. government's official web portal to all federal, state and local government web resources and services.